sensor_id;sensor_type;location;lat;lon;timestamp;P1;durP1;ratioP1;P2;durP2;ratioP2
7833;SDS011;3962;42.696;23.354;2024-01-07T00:02:23;17.03;;;16.23;;
7833;SDS011;3962;42.696;23.354;2024-01-07T00:04:49;18.20;;;17.40;;
7833;SDS011;3962;42.696;23.354;2024-01-07T00:07:18;16.03;;;15.33;;
7833;SDS011;3962;42.696;23.354;2024-01-07T00:09:45;16.03;;;15.30;;
7833;SDS011;3962;42.696;23.354;2024-01-07T00:12:12;16.47;;;15.77;;
7833;SDS011;3962;42.696;23.354;2024-01-07T00:14:39;18.23;;;17.43;;
7833;SDS011;3962;42.696;23.354;2024-01-07T00:17:06;17.67;;;16.87;;
7833;SDS011;3962;42.696;23.354;2024-01-07T00:19:33;17.80;;;17.00;;
7833;SDS011;3962;42.696;23.354;2024-01-07T00:22:00;16.37;;;15.63;;
7833;SDS011;3962;42.696;23.354;2024-01-07T00:24:29;16.70;;;16.00;;
7833;SDS011;3962;42.696;23.354;2024-01-07T00:26:55;16.20;;;15.50;;
7833;SDS011;3962;42.696;23.354;2024-01-07T00:29:22;15.47;;;14.77;;
7833;SDS011;3962;42.696;23.354;2024-01-07T00:31:49;16.63;;;15.83;;
7833;SDS011;3962;42.696;23.354;2024-01-07T00:34:16;17.30;;;16.50;;
7833;SDS011;3962;42.696;23.354;2024-01-07T00:36:43;15.87;;;15.17;;
7833;SDS011;3962;42.696;23.354;2024-01-07T00:39:10;17.43;;;16.63;;
7833;SDS011;3962;42.696;23.354;2024-01-07T00:41:38;16.57;;;15.83;;
7833;SDS011;3962;42.696;23.354;2024-01-07T00:44:05;16.10;;;15.40;;
7833;SDS011;3962;42.696;23.354;2024-01-07T00:46:31;17.37;;;16.57;;
7833;SDS011;3962;42.696;23.354;2024-01-07T00:48:58;16.70;;;16.00;;
7833;SDS011;3962;42.696;23.354;2024-01-07T00:51:25;17.70;;;16.87;;
7833;SDS011;3962;42.696;23.354;2024-01-07T00:53:52;17.20;;;16.47;;
7833;SDS011;3962;42.696;23.354;2024-01-07T00:56:18;15.63;;;14.93;;
7833;SDS011;3962;42.696;23.354;2024-01-07T00:58:47;16.00;;;15.30;;
7833;SDS011;3962;42.696;23.354;2024-01-07T01:01:13;16.33;;;15.63;;
7833;SDS011;3962;42.696;23.354;2024-01-07T01:03:40;17.50;;;16.70;;
7833;SDS011;3962;42.696;23.354;2024-01-07T01:06:07;15.03;;;14.33;;
7833;SDS011;3962;42.696;23.354;2024-01-07T01:08:34;16.57;;;15.80;;
7833;SDS011;3962;42.696;23.354;2024-01-07T01:11:00;17.17;;;16.37;;
7833;SDS011;3962;42.696;23.354;2024-01-07T01:13:27;15.77;;;15.07;;
7833;SDS011;3962;42.696;23.354;2024-01-07T01:15:55;15.43;;;14.70;;
7833;SDS011;3962;42.696;23.354;2024-01-07T01:18:22;16.73;;;15.93;;
7833;SDS011;3962;42.696;23.354;2024-01-07T01:20:49;17.40;;;16.60;;
7833;SDS011;3962;42.696;23.354;2024-01-07T01:23:16;16.83;;;16.13;;
7833;SDS011;3962;42.696;23.354;2024-01-07T01:25:42;16.63;;;15.83;;
7833;SDS011;3962;42.696;23.354;2024-01-07T01:28:09;15.70;;;15.00;;
7833;SDS011;3962;42.696;23.354;2024-01-07T01:30:36;17.33;;;16.53;;
7833;SDS011;3962;42.696;23.354;2024-01-07T01:33:04;17.70;;;16.90;;
7833;SDS011;3962;42.696;23.354;2024-01-07T01:35:31;15.50;;;14.80;;
7833;SDS011;3962;42.696;23.354;2024-01-07T01:37:58;16.87;;;16.07;;
7833;SDS011;3962;42.696;23.354;2024-01-07T01:40:25;14.77;;;14.13;;
7833;SDS011;3962;42.696;23.354;2024-01-07T01:42:52;15.73;;;14.93;;
7833;SDS011;3962;42.696;23.354;2024-01-07T01:45:18;16.57;;;15.87;;
7833;SDS011;3962;42.696;23.354;2024-01-07T01:47:45;14.70;;;14.00;;
7833;SDS011;3962;42.696;23.354;2024-01-07T01:50:15;16.40;;;15.70;;
7833;SDS011;3962;42.696;23.354;2024-01-07T01:52:43;17.27;;;16.47;;
7833;SDS011;3962;42.696;23.354;2024-01-07T01:55:10;16.50;;;15.80;;
7833;SDS011;3962;42.696;23.354;2024-01-07T01:57:38;15.20;;;14.50;;
7833;SDS011;3962;42.696;23.354;2024-01-07T02:00:07;14.17;;;13.57;;
7833;SDS011;3962;42.696;23.354;2024-01-07T02:02:34;15.90;;;15.20;;
7833;SDS011;3962;42.696;23.354;2024-01-07T02:05:01;15.53;;;14.83;;
7833;SDS011;3962;42.696;23.354;2024-01-07T02:07:30;16.10;;;15.40;;
7833;SDS011;3962;42.696;23.354;2024-01-07T02:09:57;14.90;;;14.20;;
7833;SDS011;3962;42.696;23.354;2024-01-07T02:12:24;14.90;;;14.23;;
7833;SDS011;3962;42.696;23.354;2024-01-07T02:14:51;15.83;;;15.13;;
7833;SDS011;3962;42.696;23.354;2024-01-07T02:17:18;14.93;;;14.27;;
7833;SDS011;3962;42.696;23.354;2024-01-07T02:19:45;16.27;;;15.57;;
7833;SDS011;3962;42.696;23.354;2024-01-07T02:22:12;17.60;;;16.80;;
7833;SDS011;3962;42.696;23.354;2024-01-07T02:24:40;18.07;;;17.27;;
7833;SDS011;3962;42.696;23.354;2024-01-07T02:27:07;14.73;;;14.03;;
7833;SDS011;3962;42.696;23.354;2024-01-07T02:29:34;15.77;;;15.07;;
7833;SDS011;3962;42.696;23.354;2024-01-07T02:32:00;17.90;;;17.10;;
7833;SDS011;3962;42.696;23.354;2024-01-07T02:34:27;17.00;;;16.20;;
7833;SDS011;3962;42.696;23.354;2024-01-07T02:36:54;16.23;;;15.43;;
7833;SDS011;3962;42.696;23.354;2024-01-07T02:39:21;16.30;;;15.50;;
7833;SDS011;3962;42.696;23.354;2024-01-07T02:41:49;16.20;;;15.50;;
7833;SDS011;3962;42.696;23.354;2024-01-07T02:44:16;15.90;;;15.20;;
7833;SDS011;3962;42.696;23.354;2024-01-07T02:46:43;16.60;;;15.83;;
7833;SDS011;3962;42.696;23.354;2024-01-07T02:49:11;15.70;;;14.93;;
7833;SDS011;3962;42.696;23.354;2024-01-07T02:51:38;16.73;;;16.03;;
7833;SDS011;3962;42.696;23.354;2024-01-07T02:54:05;16.87;;;16.07;;
7833;SDS011;3962;42.696;23.354;2024-01-07T02:56:31;17.30;;;16.47;;
7833;SDS011;3962;42.696;23.354;2024-01-07T02:59:00;15.77;;;15.07;;
7833;SDS011;3962;42.696;23.354;2024-01-07T03:01:26;17.77;;;16.97;;
7833;SDS011;3962;42.696;23.354;2024-01-07T03:03:53;17.87;;;17.07;;
7833;SDS011;3962;42.696;23.354;2024-01-07T03:06:20;15.97;;;15.17;;
7833;SDS011;3962;42.696;23.354;2024-01-07T03:08:47;15.10;;;14.40;;
7833;SDS011;3962;42.696;23.354;2024-01-07T03:11:14;15.60;;;14.90;;
7833;SDS011;3962;42.696;23.354;2024-01-07T03:13:41;15.03;;;14.40;;
7833;SDS011;3962;42.696;23.354;2024-01-07T03:16:18;15.40;;;14.70;;
7833;SDS011;3962;42.696;23.354;2024-01-07T03:18:45;16.43;;;15.73;;
7833;SDS011;3962;42.696;23.354;2024-01-07T03:21:16;16.10;;;15.30;;
7833;SDS011;3962;42.696;23.354;2024-01-07T03:23:43;14.77;;;14.13;;
7833;SDS011;3962;42.696;23.354;2024-01-07T03:26:10;16.03;;;15.33;;
7833;SDS011;3962;42.696;23.354;2024-01-07T03:28:37;15.47;;;14.77;;
7833;SDS011;3962;42.696;23.354;2024-01-07T03:31:04;16.60;;;15.90;;
7833;SDS011;3962;42.696;23.354;2024-01-07T03:33:33;14.23;;;13.63;;
7833;SDS011;3962;42.696;23.354;2024-01-07T03:35:59;16.13;;;15.37;;
7833;SDS011;3962;42.696;23.354;2024-01-07T03:38:26;15.23;;;14.53;;
7833;SDS011;3962;42.696;23.354;2024-01-07T03:40:53;15.73;;;15.03;;
7833;SDS011;3962;42.696;23.354;2024-01-07T03:43:20;14.03;;;13.43;;
7833;SDS011;3962;42.696;23.354;2024-01-07T03:45:47;15.13;;;14.43;;
7833;SDS011;3962;42.696;23.354;2024-01-07T03:48:14;14.97;;;14.27;;
7833;SDS011;3962;42.696;23.354;2024-01-07T03:50:43;16.53;;;15.83;;
7833;SDS011;3962;42.696;23.354;2024-01-07T03:53:09;15.93;;;15.23;;
7833;SDS011;3962;42.696;23.354;2024-01-07T03:55:36;16.07;;;15.37;;
7833;SDS011;3962;42.696;23.354;2024-01-07T03:58:04;16.27;;;15.57;;
7833;SDS011;3962;42.696;23.354;2024-01-07T04:00:30;15.10;;;14.40;;
7833;SDS011;3962;42.696;23.354;2024-01-07T04:02:57;14.70;;;14.00;;
7833;SDS011;3962;42.696;23.354;2024-01-07T04:05:24;14.47;;;13.87;;
7833;SDS011;3962;42.696;23.354;2024-01-07T04:07:52;15.23;;;14.53;;
7833;SDS011;3962;42.696;23.354;2024-01-07T04:10:19;14.50;;;13.90;;
7833;SDS011;3962;42.696;23.354;2024-01-07T04:12:46;13.47;;;12.87;;
7833;SDS011;3962;42.696;23.354;2024-01-07T04:15:13;13.27;;;12.67;;
7833;SDS011;3962;42.696;23.354;2024-01-07T04:17:40;13.27;;;12.67;;
7833;SDS011;3962;42.696;23.354;2024-01-07T04:20:07;14.00;;;13.37;;
7833;SDS011;3962;42.696;23.354;2024-01-07T04:22:34;13.40;;;12.80;;
7833;SDS011;3962;42.696;23.354;2024-01-07T04:25:03;13.80;;;13.20;;
7833;SDS011;3962;42.696;23.354;2024-01-07T04:27:33;13.30;;;12.70;;
7833;SDS011;3962;42.696;23.354;2024-01-07T04:30:00;13.80;;;13.20;;
7833;SDS011;3962;42.696;23.354;2024-01-07T04:32:26;14.00;;;13.40;;
7833;SDS011;3962;42.696;23.354;2024-01-07T04:34:53;12.80;;;12.30;;
7833;SDS011;3962;42.696;23.354;2024-01-07T04:37:21;13.50;;;12.90;;
7833;SDS011;3962;42.696;23.354;2024-01-07T04:39:48;13.80;;;13.20;;
7833;SDS011;3962;42.696;23.354;2024-01-07T04:42:16;13.60;;;13.00;;
7833;SDS011;3962;42.696;23.354;2024-01-07T04:44:43;13.83;;;13.23;;
7833;SDS011;3962;42.696;23.354;2024-01-07T04:47:26;14.70;;;14.10;;
7833;SDS011;3962;42.696;23.354;2024-01-07T04:49:54;12.90;;;12.33;;
7833;SDS011;3962;42.696;23.354;2024-01-07T04:52:21;13.70;;;13.10;;
7833;SDS011;3962;42.696;23.354;2024-01-07T04:54:48;15.37;;;14.67;;
7833;SDS011;3962;42.696;23.354;2024-01-07T04:57:16;14.40;;;13.80;;
7833;SDS011;3962;42.696;23.354;2024-01-07T04:59:43;15.10;;;14.40;;
7833;SDS011;3962;42.696;23.354;2024-01-07T05:02:10;15.50;;;14.80;;
7833;SDS011;3962;42.696;23.354;2024-01-07T05:04:37;15.10;;;14.40;;
7833;SDS011;3962;42.696;23.354;2024-01-07T05:07:04;15.60;;;14.90;;
7833;SDS011;3962;42.696;23.354;2024-01-07T05:09:31;12.73;;;12.20;;
7833;SDS011;3962;42.696;23.354;2024-01-07T05:11:58;15.93;;;15.23;;
7833;SDS011;3962;42.696;23.354;2024-01-07T05:14:27;14.07;;;13.47;;
7833;SDS011;3962;42.696;23.354;2024-01-07T05:16:54;14.60;;;14.00;;
7833;SDS011;3962;42.696;23.354;2024-01-07T05:19:21;14.93;;;14.27;;
7833;SDS011;3962;42.696;23.354;2024-01-07T05:21:48;14.60;;;13.97;;
7833;SDS011;3962;42.696;23.354;2024-01-07T05:24:14;14.53;;;13.93;;
7833;SDS011;3962;42.696;23.354;2024-01-07T05:26:41;16.17;;;15.47;;
7833;SDS011;3962;42.696;23.354;2024-01-07T05:29:09;13.97;;;13.37;;
7833;SDS011;3962;42.696;23.354;2024-01-07T05:31:38;15.07;;;14.40;;
7833;SDS011;3962;42.696;23.354;2024-01-07T05:34:06;15.13;;;14.43;;
7833;SDS011;3962;42.696;23.354;2024-01-07T05:36:33;14.83;;;14.20;;
7833;SDS011;3962;42.696;23.354;2024-01-07T05:39:00;15.63;;;14.93;;
7833;SDS011;3962;42.696;23.354;2024-01-07T05:41:26;14.60;;;14.00;;
7833;SDS011;3962;42.696;23.354;2024-01-07T05:43:53;15.20;;;14.50;;
7833;SDS011;3962;42.696;23.354;2024-01-07T05:46:20;14.70;;;14.00;;
7833;SDS011;3962;42.696;23.354;2024-01-07T05:48:48;15.17;;;14.47;;
7833;SDS011;3962;42.696;23.354;2024-01-07T05:51:16;13.87;;;13.27;;
7833;SDS011;3962;42.696;23.354;2024-01-07T05:53:43;13.80;;;13.20;;
7833;SDS011;3962;42.696;23.354;2024-01-07T05:56:10;14.53;;;13.93;;
7833;SDS011;3962;42.696;23.354;2024-01-07T05:58:37;14.70;;;14.03;;
7833;SDS011;3962;42.696;23.354;2024-01-07T06:01:04;14.13;;;13.53;;
7833;SDS011;3962;42.696;23.354;2024-01-07T06:03:32;13.67;;;13.07;;
7833;SDS011;3962;42.696;23.354;2024-01-07T06:06:01;16.87;;;16.10;;
7833;SDS011;3962;42.696;23.354;2024-01-07T06:08:28;13.90;;;13.30;;
7833;SDS011;3962;42.696;23.354;2024-01-07T06:10:54;13.83;;;13.23;;
7833;SDS011;3962;42.696;23.354;2024-01-07T06:13:21;14.17;;;13.57;;
7833;SDS011;3962;42.696;23.354;2024-01-07T06:15:48;12.97;;;12.37;;
7833;SDS011;3962;42.696;23.354;2024-01-07T06:18:15;14.40;;;13.80;;
7833;SDS011;3962;42.696;23.354;2024-01-07T06:20:41;14.10;;;13.50;;
7833;SDS011;3962;42.696;23.354;2024-01-07T06:23:10;14.10;;;13.47;;
7833;SDS011;3962;42.696;23.354;2024-01-07T06:25:36;15.30;;;14.60;;
7833;SDS011;3962;42.696;23.354;2024-01-07T06:28:04;13.77;;;13.17;;
7833;SDS011;3962;42.696;23.354;2024-01-07T06:30:31;13.67;;;13.07;;
7833;SDS011;3962;42.696;23.354;2024-01-07T06:32:58;14.70;;;14.10;;
7833;SDS011;3962;42.696;23.354;2024-01-07T06:35:25;17.40;;;16.60;;
7833;SDS011;3962;42.696;23.354;2024-01-07T06:37:52;14.27;;;13.67;;
7833;SDS011;3962;42.696;23.354;2024-01-07T06:40:20;14.27;;;13.67;;
7833;SDS011;3962;42.696;23.354;2024-01-07T06:42:47;14.87;;;14.23;;
7833;SDS011;3962;42.696;23.354;2024-01-07T06:45:14;12.80;;;12.23;;
7833;SDS011;3962;42.696;23.354;2024-01-07T06:47:41;12.73;;;12.17;;
7833;SDS011;3962;42.696;23.354;2024-01-07T06:50:09;15.73;;;14.87;;
7833;SDS011;3962;42.696;23.354;2024-01-07T06:52:36;13.70;;;13.00;;
7833;SDS011;3962;42.696;23.354;2024-01-07T06:55:03;15.90;;;15.20;;
7833;SDS011;3962;42.696;23.354;2024-01-07T06:57:32;14.77;;;14.10;;
7833;SDS011;3962;42.696;23.354;2024-01-07T06:59:59;16.20;;;15.40;;
7833;SDS011;3962;42.696;23.354;2024-01-07T07:02:25;14.50;;;13.90;;
7833;SDS011;3962;42.696;23.354;2024-01-07T07:04:52;15.67;;;14.97;;
7833;SDS011;3962;42.696;23.354;2024-01-07T07:07:19;13.67;;;13.07;;
7833;SDS011;3962;42.696;23.354;2024-01-07T07:09:46;14.97;;;14.30;;
7833;SDS011;3962;42.696;23.354;2024-01-07T07:12:12;14.50;;;13.83;;
7833;SDS011;3962;42.696;23.354;2024-01-07T07:14:41;15.20;;;14.50;;
7833;SDS011;3962;42.696;23.354;2024-01-07T07:17:07;15.53;;;14.83;;
7833;SDS011;3962;42.696;23.354;2024-01-07T07:19:34;14.30;;;13.70;;
7833;SDS011;3962;42.696;23.354;2024-01-07T07:22:01;14.80;;;14.10;;
7833;SDS011;3962;42.696;23.354;2024-01-07T07:24:28;13.70;;;13.10;;
7833;SDS011;3962;42.696;23.354;2024-01-07T07:26:55;14.77;;;14.10;;
7833;SDS011;3962;42.696;23.354;2024-01-07T07:29:22;13.47;;;12.87;;
7833;SDS011;3962;42.696;23.354;2024-01-07T07:31:50;16.40;;;15.70;;
7833;SDS011;3962;42.696;23.354;2024-01-07T07:34:17;14.20;;;13.60;;
7833;SDS011;3962;42.696;23.354;2024-01-07T07:36:44;15.30;;;14.60;;
7833;SDS011;3962;42.696;23.354;2024-01-07T07:39:11;16.57;;;15.67;;
7833;SDS011;3962;42.696;23.354;2024-01-07T07:41:39;14.20;;;13.60;;
7833;SDS011;3962;42.696;23.354;2024-01-07T07:44:06;13.97;;;13.33;;
7833;SDS011;3962;42.696;23.354;2024-01-07T07:46:33;13.43;;;12.83;;
7833;SDS011;3962;42.696;23.354;2024-01-07T07:49:01;14.77;;;14.17;;
7833;SDS011;3962;42.696;23.354;2024-01-07T07:51:28;14.20;;;13.60;;
7833;SDS011;3962;42.696;23.354;2024-01-07T07:53:55;13.80;;;13.20;;
7833;SDS011;3962;42.696;23.354;2024-01-07T07:56:22;14.47;;;13.87;;
7833;SDS011;3962;42.696;23.354;2024-01-07T07:58:49;13.20;;;12.60;;
7833;SDS011;3962;42.696;23.354;2024-01-07T08:01:16;14.50;;;13.90;;
7833;SDS011;3962;42.696;23.354;2024-01-07T08:03:43;14.17;;;13.57;;
7833;SDS011;3962;42.696;23.354;2024-01-07T08:06:11;13.60;;;13.00;;
7833;SDS011;3962;42.696;23.354;2024-01-07T08:08:38;12.87;;;12.30;;
7833;SDS011;3962;42.696;23.354;2024-01-07T08:11:05;13.40;;;12.80;;
7833;SDS011;3962;42.696;23.354;2024-01-07T08:13:34;13.80;;;13.20;;
7833;SDS011;3962;42.696;23.354;2024-01-07T08:16:03;13.53;;;12.93;;
7833;SDS011;3962;42.696;23.354;2024-01-07T08:18:31;13.13;;;12.53;;
7833;SDS011;3962;42.696;23.354;2024-01-07T08:20:58;14.13;;;13.53;;
7833;SDS011;3962;42.696;23.354;2024-01-07T08:23:27;13.23;;;12.63;;
7833;SDS011;3962;42.696;23.354;2024-01-07T08:25:53;12.60;;;12.10;;
7833;SDS011;3962;42.696;23.354;2024-01-07T08:28:20;13.77;;;13.17;;
7833;SDS011;3962;42.696;23.354;2024-01-07T08:30:47;14.23;;;13.63;;
7833;SDS011;3962;42.696;23.354;2024-01-07T08:33:14;12.93;;;12.33;;
7833;SDS011;3962;42.696;23.354;2024-01-07T08:35:41;13.87;;;13.27;;
7833;SDS011;3962;42.696;23.354;2024-01-07T08:38:08;13.60;;;13.00;;
7833;SDS011;3962;42.696;23.354;2024-01-07T08:40:36;14.03;;;13.33;;
7833;SDS011;3962;42.696;23.354;2024-01-07T08:43:03;14.80;;;14.10;;
7833;SDS011;3962;42.696;23.354;2024-01-07T08:45:30;13.30;;;12.70;;
7833;SDS011;3962;42.696;23.354;2024-01-07T08:47:57;13.50;;;12.90;;
7833;SDS011;3962;42.696;23.354;2024-01-07T08:50:24;12.63;;;12.13;;
7833;SDS011;3962;42.696;23.354;2024-01-07T08:52:51;12.80;;;12.20;;
7833;SDS011;3962;42.696;23.354;2024-01-07T08:55:18;12.73;;;12.23;;
7833;SDS011;3962;42.696;23.354;2024-01-07T08:57:46;12.70;;;12.20;;
7833;SDS011;3962;42.696;23.354;2024-01-07T09:00:14;12.07;;;11.53;;
7833;SDS011;3962;42.696;23.354;2024-01-07T09:02:42;14.10;;;13.50;;
7833;SDS011;3962;42.696;23.354;2024-01-07T09:05:09;11.63;;;11.13;;
7833;SDS011;3962;42.696;23.354;2024-01-07T09:07:37;12.40;;;11.90;;
7833;SDS011;3962;42.696;23.354;2024-01-07T09:10:04;13.10;;;12.50;;
7833;SDS011;3962;42.696;23.354;2024-01-07T09:12:35;13.47;;;12.87;;
7833;SDS011;3962;42.696;23.354;2024-01-07T09:15:04;12.30;;;11.70;;
7833;SDS011;3962;42.696;23.354;2024-01-07T09:17:34;12.87;;;12.33;;
7833;SDS011;3962;42.696;23.354;2024-01-07T09:20:01;11.27;;;10.77;;
7833;SDS011;3962;42.696;23.354;2024-01-07T09:22:32;13.07;;;12.47;;
7833;SDS011;3962;42.696;23.354;2024-01-07T09:24:59;12.60;;;12.03;;
7833;SDS011;3962;42.696;23.354;2024-01-07T09:27:26;11.53;;;11.03;;
7833;SDS011;3962;42.696;23.354;2024-01-07T09:29:52;12.60;;;12.00;;
7833;SDS011;3962;42.696;23.354;2024-01-07T09:32:21;12.10;;;11.60;;
7833;SDS011;3962;42.696;23.354;2024-01-07T09:34:48;10.57;;;10.17;;
7833;SDS011;3962;42.696;23.354;2024-01-07T09:37:14;12.17;;;11.67;;
7833;SDS011;3962;42.696;23.354;2024-01-07T09:39:42;10.83;;;10.33;;
7833;SDS011;3962;42.696;23.354;2024-01-07T09:42:11;12.07;;;11.50;;
7833;SDS011;3962;42.696;23.354;2024-01-07T09:44:39;13.13;;;12.53;;
7833;SDS011;3962;42.696;23.354;2024-01-07T09:47:07;12.73;;;12.23;;
7833;SDS011;3962;42.696;23.354;2024-01-07T09:49:38;10.23;;;9.83;;
7833;SDS011;3962;42.696;23.354;2024-01-07T09:52:07;11.13;;;10.63;;
7833;SDS011;3962;42.696;23.354;2024-01-07T09:54:35;12.27;;;11.77;;
7833;SDS011;3962;42.696;23.354;2024-01-07T09:57:04;10.50;;;10.03;;
7833;SDS011;3962;42.696;23.354;2024-01-07T09:59:32;10.60;;;10.17;;
7833;SDS011;3962;42.696;23.354;2024-01-07T10:02:00;11.90;;;11.40;;
7833;SDS011;3962;42.696;23.354;2024-01-07T10:04:27;10.07;;;9.67;;
7833;SDS011;3962;42.696;23.354;2024-01-07T10:06:56;11.33;;;10.83;;
7833;SDS011;3962;42.696;23.354;2024-01-07T10:09:22;10.63;;;10.23;;
7833;SDS011;3962;42.696;23.354;2024-01-07T10:11:51;10.13;;;9.73;;
7833;SDS011;3962;42.696;23.354;2024-01-07T10:14:18;10.10;;;9.70;;
7833;SDS011;3962;42.696;23.354;2024-01-07T10:16:47;11.17;;;10.67;;
7833;SDS011;3962;42.696;23.354;2024-01-07T10:19:17;10.77;;;10.27;;
7833;SDS011;3962;42.696;23.354;2024-01-07T10:21:47;11.33;;;10.83;;
7833;SDS011;3962;42.696;23.354;2024-01-07T10:24:37;11.50;;;11.00;;
7833;SDS011;3962;42.696;23.354;2024-01-07T10:27:05;11.63;;;11.13;;
7833;SDS011;3962;42.696;23.354;2024-01-07T10:29:32;11.43;;;10.83;;
7833;SDS011;3962;42.696;23.354;2024-01-07T10:31:59;11.63;;;11.03;;
7833;SDS011;3962;42.696;23.354;2024-01-07T10:34:29;11.50;;;11.00;;
7833;SDS011;3962;42.696;23.354;2024-01-07T10:36:58;11.97;;;11.40;;
7833;SDS011;3962;42.696;23.354;2024-01-07T10:39:27;13.00;;;12.40;;
7833;SDS011;3962;42.696;23.354;2024-01-07T10:41:54;13.77;;;13.07;;
7833;SDS011;3962;42.696;23.354;2024-01-07T10:44:24;12.50;;;11.90;;
7833;SDS011;3962;42.696;23.354;2024-01-07T10:46:52;11.57;;;11.07;;
7833;SDS011;3962;42.696;23.354;2024-01-07T10:49:20;12.27;;;11.70;;
7833;SDS011;3962;42.696;23.354;2024-01-07T10:51:50;12.23;;;11.63;;
7833;SDS011;3962;42.696;23.354;2024-01-07T10:54:28;12.60;;;12.00;;
7833;SDS011;3962;42.696;23.354;2024-01-07T10:56:58;11.93;;;11.43;;
7833;SDS011;3962;42.696;23.354;2024-01-07T10:59:26;14.53;;;13.90;;
7833;SDS011;3962;42.696;23.354;2024-01-07T11:01:54;13.03;;;12.43;;
7833;SDS011;3962;42.696;23.354;2024-01-07T11:04:22;12.83;;;12.23;;
7833;SDS011;3962;42.696;23.354;2024-01-07T11:06:57;12.37;;;11.87;;
7833;SDS011;3962;42.696;23.354;2024-01-07T11:09:35;13.37;;;12.73;;
7833;SDS011;3962;42.696;23.354;2024-01-07T11:12:06;11.00;;;10.50;;
7833;SDS011;3962;42.696;23.354;2024-01-07T11:14:39;11.23;;;10.73;;
7833;SDS011;3962;42.696;23.354;2024-01-07T11:17:10;12.87;;;12.17;;
7833;SDS011;3962;42.696;23.354;2024-01-07T11:19:38;12.23;;;11.63;;
7833;SDS011;3962;42.696;23.354;2024-01-07T11:22:25;12.07;;;11.57;;
7833;SDS011;3962;42.696;23.354;2024-01-07T11:24:55;11.60;;;11.10;;
7833;SDS011;3962;42.696;23.354;2024-01-07T11:27:21;12.53;;;12.03;;
7833;SDS011;3962;42.696;23.354;2024-01-07T11:29:53;9.93;;;9.53;;
7833;SDS011;3962;42.696;23.354;2024-01-07T11:32:22;12.57;;;11.97;;
7833;SDS011;3962;42.696;23.354;2024-01-07T11:34:50;11.47;;;10.97;;
7833;SDS011;3962;42.696;23.354;2024-01-07T11:37:19;10.60;;;10.20;;
7833;SDS011;3962;42.696;23.354;2024-01-07T11:39:47;11.63;;;11.03;;
7833;SDS011;3962;42.696;23.354;2024-01-07T11:42:16;11.47;;;10.97;;
7833;SDS011;3962;42.696;23.354;2024-01-07T11:44:47;10.87;;;10.37;;
7833;SDS011;3962;42.696;23.354;2024-01-07T11:47:15;11.43;;;10.93;;
7833;SDS011;3962;42.696;23.354;2024-01-07T11:49:42;11.77;;;11.27;;
7833;SDS011;3962;42.696;23.354;2024-01-07T11:52:09;11.30;;;10.70;;
7833;SDS011;3962;42.696;23.354;2024-01-07T11:54:36;10.37;;;9.87;;
7833;SDS011;3962;42.696;23.354;2024-01-07T11:57:04;11.43;;;10.93;;
7833;SDS011;3962;42.696;23.354;2024-01-07T11:59:32;10.43;;;9.97;;
7833;SDS011;3962;42.696;23.354;2024-01-07T12:02:00;11.70;;;11.20;;
7833;SDS011;3962;42.696;23.354;2024-01-07T12:04:29;10.70;;;10.20;;
7833;SDS011;3962;42.696;23.354;2024-01-07T12:06:56;11.90;;;11.37;;
7833;SDS011;3962;42.696;23.354;2024-01-07T12:09:23;10.60;;;10.20;;
7833;SDS011;3962;42.696;23.354;2024-01-07T12:11:49;11.13;;;10.63;;
7833;SDS011;3962;42.696;23.354;2024-01-07T12:14:17;10.90;;;10.40;;
7833;SDS011;3962;42.696;23.354;2024-01-07T12:16:46;10.23;;;9.83;;
7833;SDS011;3962;42.696;23.354;2024-01-07T12:19:13;11.20;;;10.70;;
7833;SDS011;3962;42.696;23.354;2024-01-07T12:21:40;11.23;;;10.73;;
7833;SDS011;3962;42.696;23.354;2024-01-07T12:24:06;11.53;;;11.03;;
7833;SDS011;3962;42.696;23.354;2024-01-07T12:26:33;10.80;;;10.30;;
7833;SDS011;3962;42.696;23.354;2024-01-07T12:29:02;11.80;;;11.30;;
7833;SDS011;3962;42.696;23.354;2024-01-07T12:31:30;11.30;;;10.80;;
7833;SDS011;3962;42.696;23.354;2024-01-07T12:33:59;10.20;;;9.80;;
7833;SDS011;3962;42.696;23.354;2024-01-07T12:36:29;12.67;;;12.17;;
7833;SDS011;3962;42.696;23.354;2024-01-07T12:38:56;11.70;;;11.20;;
7833;SDS011;3962;42.696;23.354;2024-01-07T12:41:23;12.13;;;11.60;;
7833;SDS011;3962;42.696;23.354;2024-01-07T12:43:50;11.73;;;11.23;;
7833;SDS011;3962;42.696;23.354;2024-01-07T12:46:17;9.97;;;9.57;;
7833;SDS011;3962;42.696;23.354;2024-01-07T12:48:44;11.47;;;10.87;;
7833;SDS011;3962;42.696;23.354;2024-01-07T12:51:12;11.03;;;10.53;;
7833;SDS011;3962;42.696;23.354;2024-01-07T12:53:39;10.93;;;10.43;;
7833;SDS011;3962;42.696;23.354;2024-01-07T12:56:06;9.93;;;9.53;;
7833;SDS011;3962;42.696;23.354;2024-01-07T12:58:33;11.30;;;10.80;;
7833;SDS011;3962;42.696;23.354;2024-01-07T13:01:00;10.47;;;10.00;;
7833;SDS011;3962;42.696;23.354;2024-01-07T13:03:27;10.10;;;9.70;;
7833;SDS011;3962;42.696;23.354;2024-01-07T13:05:53;9.63;;;9.23;;
7833;SDS011;3962;42.696;23.354;2024-01-07T13:08:22;12.07;;;11.57;;
7833;SDS011;3962;42.696;23.354;2024-01-07T13:10:51;11.87;;;11.37;;
7833;SDS011;3962;42.696;23.354;2024-01-07T13:13:18;12.30;;;11.70;;
7833;SDS011;3962;42.696;23.354;2024-01-07T13:15:45;11.53;;;11.03;;
7833;SDS011;3962;42.696;23.354;2024-01-07T13:18:12;11.10;;;10.60;;
7833;SDS011;3962;42.696;23.354;2024-01-07T13:20:40;11.00;;;10.50;;
7833;SDS011;3962;42.696;23.354;2024-01-07T13:23:07;12.20;;;11.60;;
7833;SDS011;3962;42.696;23.354;2024-01-07T13:25:35;12.07;;;11.37;;
7833;SDS011;3962;42.696;23.354;2024-01-07T13:28:02;11.90;;;11.30;;
7833;SDS011;3962;42.696;23.354;2024-01-07T13:30:29;12.37;;;11.77;;
7833;SDS011;3962;42.696;23.354;2024-01-07T13:32:57;12.00;;;11.40;;
7833;SDS011;3962;42.696;23.354;2024-01-07T13:35:24;12.40;;;11.70;;
7833;SDS011;3962;42.696;23.354;2024-01-07T13:37:51;11.73;;;11.23;;
7833;SDS011;3962;42.696;23.354;2024-01-07T13:40:18;10.50;;;10.00;;
7833;SDS011;3962;42.696;23.354;2024-01-07T13:42:46;10.10;;;9.70;;
7833;SDS011;3962;42.696;23.354;2024-01-07T13:45:16;11.17;;;10.67;;
7833;SDS011;3962;42.696;23.354;2024-01-07T13:47:45;10.97;;;10.30;;
7833;SDS011;3962;42.696;23.354;2024-01-07T13:50:13;12.70;;;12.10;;
7833;SDS011;3962;42.696;23.354;2024-01-07T13:52:40;11.57;;;11.07;;
7833;SDS011;3962;42.696;23.354;2024-01-07T13:55:07;11.30;;;10.80;;
7833;SDS011;3962;42.696;23.354;2024-01-07T13:57:35;12.37;;;11.77;;
7833;SDS011;3962;42.696;23.354;2024-01-07T14:00:04;11.93;;;11.40;;
7833;SDS011;3962;42.696;23.354;2024-01-07T14:02:34;10.17;;;9.77;;
7833;SDS011;3962;42.696;23.354;2024-01-07T14:05:03;10.87;;;10.37;;
7833;SDS011;3962;42.696;23.354;2024-01-07T14:07:31;11.93;;;11.43;;
7833;SDS011;3962;42.696;23.354;2024-01-07T14:09:59;12.00;;;11.40;;
7833;SDS011;3962;42.696;23.354;2024-01-07T14:12:27;12.30;;;11.70;;
7833;SDS011;3962;42.696;23.354;2024-01-07T14:14:54;11.37;;;10.87;;
7833;SDS011;3962;42.696;23.354;2024-01-07T14:17:23;12.73;;;12.13;;
7833;SDS011;3962;42.696;23.354;2024-01-07T14:19:49;11.57;;;11.07;;
7833;SDS011;3962;42.696;23.354;2024-01-07T14:22:18;10.20;;;9.70;;
7833;SDS011;3962;42.696;23.354;2024-01-07T14:24:45;9.93;;;9.43;;
7833;SDS011;3962;42.696;23.354;2024-01-07T14:27:13;12.10;;;11.40;;
7833;SDS011;3962;42.696;23.354;2024-01-07T14:29:40;13.07;;;12.37;;
7833;SDS011;3962;42.696;23.354;2024-01-07T14:32:07;12.10;;;11.50;;
7833;SDS011;3962;42.696;23.354;2024-01-07T14:34:38;12.93;;;12.33;;
7833;SDS011;3962;42.696;23.354;2024-01-07T14:37:06;10.53;;;10.03;;
7833;SDS011;3962;42.696;23.354;2024-01-07T14:39:34;11.83;;;11.33;;